createdAt,value
2022-10-16T00:02:11.950Z,0.75
2022-10-16T00:04:38.282Z,0.47
2022-10-16T00:07:04.576Z,0.77
2022-10-16T00:09:31.080Z,0.77
2022-10-16T00:11:57.371Z,0.85
2022-10-16T00:14:23.689Z,0.60
2022-10-16T00:16:50.041Z,0.68
2022-10-16T00:19:16.745Z,0.82
2022-10-16T00:21:43.247Z,1.20
2022-10-16T00:24:10.311Z,0.77
2022-10-16T00:26:37.458Z,0.63
2022-10-16T00:29:03.910Z,0.63
2022-10-16T00:31:30.612Z,0.73
2022-10-16T00:33:56.916Z,0.60
2022-10-16T00:36:24.528Z,0.60
2022-10-16T00:38:53.886Z,0.63
2022-10-16T00:41:20.297Z,0.40
2022-10-16T00:43:48.132Z,0.38
2022-10-16T00:46:17.170Z,0.52
2022-10-16T00:48:46.337Z,0.85
2022-10-16T00:51:12.647Z,0.40
2022-10-16T00:53:39.084Z,0.50
2022-10-16T00:56:05.515Z,0.45
2022-10-16T00:58:32.284Z,0.60
2022-10-16T01:00:58.661Z,0.57
2022-10-16T01:03:26.969Z,0.50
2022-10-16T01:06:00.059Z,0.50
2022-10-16T01:08:33.306Z,0.60
2022-10-16T01:11:06.250Z,0.40
2022-10-16T01:13:38.261Z,0.70
2022-10-16T01:16:16.505Z,0.70
2022-10-16T01:18:55.426Z,0.60
2022-10-16T01:21:33.148Z,0.52
2022-10-16T01:24:02.199Z,0.63
2022-10-16T01:26:47.167Z,1.45
2022-10-16T01:29:20.097Z,0.63
2022-10-16T01:31:55.074Z,0.70
2022-10-16T01:34:29.675Z,0.73
2022-10-16T01:37:03.299Z,0.65
2022-10-16T01:39:31.089Z,1.08
2022-10-16T01:42:04.624Z,0.60
2022-10-16T01:44:32.487Z,0.55
2022-10-16T01:46:59.724Z,0.80
2022-10-16T01:49:27.429Z,0.60
2022-10-16T01:51:56.623Z,0.60
2022-10-16T01:54:23.940Z,0.75
2022-10-16T01:56:51.423Z,0.47
2022-10-16T01:59:19.619Z,0.70
2022-10-16T02:01:48.446Z,0.52
2022-10-16T02:04:17.750Z,0.70
2022-10-16T02:06:44.197Z,0.90
2022-10-16T02:09:10.622Z,1.00
2022-10-16T02:11:36.944Z,0.50
2022-10-16T02:14:04.841Z,0.60
2022-10-16T02:16:39.020Z,0.75
2022-10-16T02:19:06.234Z,0.60
2022-10-16T02:21:52.830Z,0.60
2022-10-16T02:24:22.688Z,0.60
2022-10-16T02:27:04.008Z,0.85
2022-10-16T02:29:30.739Z,1.17
2022-10-16T02:31:59.594Z,0.70
2022-10-16T02:34:27.200Z,0.68
2022-10-16T02:36:54.148Z,0.60
2022-10-16T02:39:21.062Z,0.80
2022-10-16T02:41:47.375Z,0.68
2022-10-16T02:44:13.714Z,0.98
2022-10-16T02:46:40.120Z,0.80
2022-10-16T02:49:06.410Z,0.70
2022-10-16T02:51:32.765Z,0.65
2022-10-16T02:53:59.167Z,0.77
2022-10-16T02:56:25.448Z,1.15
2022-10-16T02:58:51.839Z,0.70
2022-10-16T03:01:18.321Z,1.08
2022-10-16T03:03:44.651Z,0.75
2022-10-16T03:06:10.935Z,1.00
2022-10-16T03:08:37.244Z,0.90
2022-10-16T03:11:03.520Z,0.70
2022-10-16T03:13:29.825Z,0.70
2022-10-16T03:15:56.238Z,0.70
2022-10-16T03:18:22.527Z,0.70
2022-10-16T03:20:48.968Z,0.90
2022-10-16T03:23:15.318Z,0.63
2022-10-16T03:25:41.604Z,0.77
2022-10-16T03:28:07.941Z,0.57
2022-10-16T03:30:34.251Z,0.82
2022-10-16T03:33:00.579Z,0.80
2022-10-16T03:35:27.051Z,0.73
2022-10-16T03:37:53.880Z,0.88
2022-10-16T03:40:20.362Z,0.88
2022-10-16T03:42:46.716Z,1.10
2022-10-16T03:45:13.005Z,0.75
2022-10-16T03:47:39.295Z,0.60
2022-10-16T03:50:05.979Z,0.55
2022-10-16T03:52:33.172Z,0.93
2022-10-16T03:54:59.733Z,0.60
2022-10-16T03:57:26.246Z,0.68
2022-10-16T03:59:52.684Z,0.63
2022-10-16T04:02:19.043Z,0.68
2022-10-16T04:04:45.437Z,0.90
2022-10-16T04:07:11.770Z,0.70
2022-10-16T04:09:38.097Z,0.60
2022-10-16T04:12:04.433Z,0.50
2022-10-16T04:14:30.729Z,0.70
2022-10-16T04:16:57.056Z,0.65
2022-10-16T04:19:23.401Z,0.60
2022-10-16T04:21:49.670Z,0.63
2022-10-16T04:24:16.004Z,0.70
2022-10-16T04:26:42.300Z,0.77
2022-10-16T04:29:08.672Z,0.57
2022-10-16T04:31:35.074Z,0.73
2022-10-16T04:34:01.435Z,0.70
2022-10-16T04:36:29.262Z,0.70
2022-10-16T04:38:55.981Z,0.85
2022-10-16T04:41:22.248Z,0.95
2022-10-16T04:43:48.576Z,0.93
2022-10-16T04:46:14.873Z,0.55
2022-10-16T04:48:41.187Z,0.73
2022-10-16T04:51:07.612Z,0.75
2022-10-16T04:53:34.375Z,0.80
2022-10-16T04:56:00.652Z,0.52
2022-10-16T04:58:27.022Z,0.63
2022-10-16T05:00:53.379Z,0.88
2022-10-16T05:03:20.068Z,0.80
2022-10-16T05:05:46.850Z,1.20
2022-10-16T05:08:14.247Z,1.15
2022-10-16T05:10:42.449Z,0.52
2022-10-16T05:13:08.758Z,0.50
2022-10-16T05:15:35.173Z,0.80
2022-10-16T05:18:01.602Z,0.82
2022-10-16T05:20:28.016Z,1.00
2022-10-16T05:22:54.303Z,0.73
2022-10-16T05:25:20.596Z,1.10
2022-10-16T05:27:50.515Z,0.60
2022-10-16T05:30:17.720Z,0.75
2022-10-16T05:32:48.163Z,0.75
2022-10-16T05:35:14.567Z,0.93
2022-10-16T05:37:40.843Z,0.93
2022-10-16T05:40:07.552Z,0.80
2022-10-16T05:42:33.954Z,1.25
2022-10-16T05:45:00.705Z,0.77
2022-10-16T05:47:27.312Z,1.10
2022-10-16T05:49:54.251Z,0.90
2022-10-16T05:52:20.540Z,1.20
2022-10-16T05:54:46.816Z,0.85
2022-10-16T05:57:13.102Z,0.70
2022-10-16T05:59:39.479Z,0.70
2022-10-16T06:02:05.794Z,1.00
2022-10-16T06:04:32.192Z,0.75
2022-10-16T06:07:01.639Z,0.88
2022-10-16T06:09:28.063Z,0.70
2022-10-16T06:11:54.352Z,0.95
2022-10-16T06:14:20.641Z,1.00
2022-10-16T06:16:46.929Z,1.35
2022-10-16T06:19:13.344Z,1.00
2022-10-16T06:21:39.699Z,0.98
2022-10-16T06:24:06.032Z,0.73
2022-10-16T06:26:32.563Z,0.68
2022-10-16T06:28:59.545Z,0.98
2022-10-16T06:31:31.721Z,0.85
2022-10-16T06:33:58.484Z,0.80
2022-10-16T06:36:25.910Z,0.75
2022-10-16T06:38:52.310Z,0.50
2022-10-16T06:41:19.904Z,0.70
2022-10-16T06:43:46.465Z,0.70
2022-10-16T06:46:13.726Z,0.45
2022-10-16T06:48:40.037Z,0.70
2022-10-16T06:51:07.962Z,0.85
2022-10-16T06:53:39.935Z,0.73
2022-10-16T06:56:10.521Z,0.63
2022-10-16T06:58:37.347Z,0.98
2022-10-16T07:01:04.455Z,0.80
2022-10-16T07:03:30.839Z,0.90
2022-10-16T07:05:57.424Z,0.70
2022-10-16T07:08:23.772Z,0.68
2022-10-16T07:10:58.473Z,0.90
2022-10-16T07:13:24.770Z,0.73
2022-10-16T07:15:51.114Z,0.80
2022-10-16T07:18:17.384Z,0.60
2022-10-16T07:20:43.689Z,1.15
2022-10-16T07:23:10.002Z,0.80
2022-10-16T07:25:36.332Z,0.73
2022-10-16T07:28:02.644Z,0.77
2022-10-16T07:30:28.915Z,0.80
2022-10-16T07:32:55.238Z,1.00
2022-10-16T07:35:21.518Z,0.68
2022-10-16T07:37:47.892Z,0.90
2022-10-16T07:40:14.237Z,0.80
2022-10-16T07:42:40.549Z,1.13
2022-10-16T07:45:07.255Z,0.80
2022-10-16T07:47:33.596Z,1.17
2022-10-16T07:49:59.894Z,0.65
2022-10-16T07:52:26.236Z,0.60
2022-10-16T07:54:52.581Z,1.05
2022-10-16T07:57:20.699Z,0.68
2022-10-16T07:59:47.145Z,0.85
2022-10-16T08:02:13.537Z,1.52
2022-10-16T08:04:39.816Z,0.45
2022-10-16T08:07:07.660Z,0.85
2022-10-16T08:09:33.984Z,1.00
2022-10-16T08:12:02.395Z,1.10
2022-10-16T08:14:28.982Z,1.58
2022-10-16T08:16:55.316Z,0.95
2022-10-16T08:19:21.636Z,1.10
2022-10-16T08:21:48.894Z,1.10
2022-10-16T08:24:15.207Z,0.90
2022-10-16T08:26:42.170Z,1.05
2022-10-16T08:29:08.563Z,1.02
2022-10-16T08:31:34.953Z,1.05
2022-10-16T08:34:01.261Z,1.00
2022-10-16T08:36:27.549Z,1.10
2022-10-16T08:38:55.339Z,0.98
2022-10-16T08:41:31.176Z,0.77
2022-10-16T08:44:26.768Z,1.95
2022-10-16T08:47:07.739Z,1.30
2022-10-16T08:49:34.153Z,0.98
2022-10-16T08:52:01.295Z,1.15
2022-10-16T08:54:37.976Z,1.25
2022-10-16T08:57:12.918Z,1.20
2022-10-16T08:59:39.241Z,1.15
2022-10-16T09:02:19.947Z,1.35
2022-10-16T09:04:46.362Z,1.00
2022-10-16T09:07:21.696Z,1.35
2022-10-16T09:09:55.052Z,1.08
2022-10-16T09:12:21.333Z,1.55
2022-10-16T09:14:53.784Z,0.90
2022-10-16T09:17:26.298Z,1.17
2022-10-16T09:19:57.153Z,1.48
2022-10-16T09:22:27.300Z,1.35
2022-10-16T09:24:54.677Z,1.00
2022-10-16T09:27:21.134Z,1.25
2022-10-16T09:29:47.444Z,1.67
2022-10-16T09:32:15.420Z,1.95
2022-10-16T09:34:47.923Z,1.52
2022-10-16T09:37:15.457Z,1.25
2022-10-16T09:39:49.038Z,1.10
2022-10-16T09:42:17.346Z,0.82
2022-10-16T09:44:48.022Z,1.50
2022-10-16T09:47:14.428Z,1.40
2022-10-16T09:49:51.151Z,0.82
2022-10-16T09:52:17.802Z,1.38
2022-10-16T09:55:10.325Z,1.10
2022-10-16T09:57:36.623Z,0.80
2022-10-16T10:00:09.438Z,1.48
2022-10-16T10:02:36.747Z,1.40
2022-10-16T10:05:05.298Z,0.95
2022-10-16T10:07:35.427Z,1.25
2022-10-16T10:10:02.854Z,1.65
2022-10-16T10:12:31.661Z,1.73
2022-10-16T10:14:58.990Z,1.00
2022-10-16T10:17:26.767Z,1.20
2022-10-16T10:20:01.907Z,1.00
2022-10-16T10:22:28.603Z,1.08
2022-10-16T10:25:01.767Z,1.45
2022-10-16T10:27:36.504Z,1.35
2022-10-16T10:30:08.004Z,1.60
2022-10-16T10:32:58.126Z,1.27
2022-10-16T10:35:43.114Z,1.15
2022-10-16T10:38:28.133Z,1.40
2022-10-16T10:41:00.264Z,0.93
2022-10-16T10:43:36.666Z,1.63
2022-10-16T10:46:04.614Z,0.95
2022-10-16T10:48:30.882Z,0.90
2022-10-16T10:51:16.128Z,1.88
2022-10-16T10:53:49.243Z,1.50
2022-10-16T10:56:22.275Z,1.08
2022-10-16T10:58:48.574Z,1.35
2022-10-16T11:01:15.606Z,1.95
2022-10-16T11:03:47.727Z,1.17
2022-10-16T11:06:25.620Z,1.10
2022-10-16T11:08:57.624Z,1.10
2022-10-16T11:11:31.349Z,1.27
2022-10-16T11:14:17.326Z,1.15
2022-10-16T11:16:46.922Z,1.23
2022-10-16T11:19:15.761Z,1.00
2022-10-16T11:21:51.271Z,0.90
2022-10-16T11:24:24.545Z,1.35
2022-10-16T11:26:53.625Z,2.05
2022-10-16T11:29:26.250Z,1.45
2022-10-16T11:31:56.012Z,1.55
2022-10-16T11:34:43.273Z,1.65
2022-10-16T11:37:15.362Z,0.95
2022-10-16T11:39:43.270Z,1.08
2022-10-16T11:42:15.623Z,1.02
2022-10-16T11:45:00.602Z,1.27
2022-10-16T11:48:00.505Z,1.30
2022-10-16T11:50:29.963Z,0.90
2022-10-16T11:53:01.640Z,1.02
2022-10-16T11:55:33.965Z,1.20
2022-10-16T11:58:08.797Z,1.60
2022-10-16T12:00:48.693Z,1.20
2022-10-16T12:03:30.636Z,1.33
2022-10-16T12:05:56.961Z,1.17
2022-10-16T12:08:23.347Z,1.45
2022-10-16T12:10:49.709Z,1.00
2022-10-16T12:13:34.731Z,1.38
2022-10-16T12:16:07.737Z,0.80
2022-10-16T12:18:34.038Z,1.15
2022-10-16T12:21:05.787Z,1.02
2022-10-16T12:23:32.882Z,1.05
2022-10-16T12:26:00.216Z,0.73
2022-10-16T12:28:28.883Z,1.52
2022-10-16T12:31:15.511Z,1.35
2022-10-16T12:33:43.589Z,1.15
2022-10-16T12:36:27.781Z,1.15
2022-10-16T12:38:54.614Z,0.90
2022-10-16T12:41:30.091Z,1.20
2022-10-16T12:43:57.336Z,1.17
2022-10-16T12:46:25.230Z,1.08
2022-10-16T12:49:07.159Z,1.65
2022-10-16T12:51:36.077Z,1.20
2022-10-16T12:54:12.717Z,2.42
2022-10-16T12:56:48.126Z,1.20
2022-10-16T12:59:22.273Z,1.70
2022-10-16T13:01:51.583Z,0.90
2022-10-16T13:04:23.145Z,1.48
2022-10-16T13:06:52.192Z,1.40
2022-10-16T13:09:31.369Z,1.60
2022-10-16T13:12:06.517Z,1.10
2022-10-16T13:14:47.988Z,1.27
2022-10-16T13:17:14.352Z,1.50
2022-10-16T13:19:51.141Z,1.48
2022-10-16T13:22:25.446Z,1.20
2022-10-16T13:24:57.925Z,1.17
2022-10-16T13:27:30.260Z,1.08
2022-10-16T13:30:09.673Z,1.67
2022-10-16T13:32:36.093Z,1.48
2022-10-16T13:35:02.502Z,1.50
2022-10-16T13:37:29.404Z,1.58
2022-10-16T13:40:14.574Z,1.55
2022-10-16T13:42:41.298Z,1.15
2022-10-16T13:45:18.481Z,1.13
2022-10-16T13:47:44.780Z,1.65
2022-10-16T13:50:12.854Z,1.15
2022-10-16T13:52:39.626Z,1.35
2022-10-16T13:55:11.815Z,1.30
2022-10-16T13:57:38.409Z,1.20
2022-10-16T14:00:17.916Z,1.45
2022-10-16T14:02:44.326Z,1.25
2022-10-16T14:05:11.615Z,1.27
2022-10-16T14:07:38.416Z,1.20
2022-10-16T14:10:06.870Z,1.45
2022-10-16T14:12:33.759Z,1.63
2022-10-16T14:15:00.881Z,1.55
2022-10-16T14:17:29.421Z,1.63
2022-10-16T14:19:59.763Z,1.70
2022-10-16T14:22:36.923Z,1.55
2022-10-16T14:25:21.205Z,1.30
2022-10-16T14:28:15.667Z,1.40
2022-10-16T14:30:55.469Z,1.10
2022-10-16T14:33:23.494Z,1.48
2022-10-16T14:36:00.645Z,1.60
2022-10-16T14:38:27.056Z,1.83
2022-10-16T14:40:53.489Z,2.42
2022-10-16T14:43:40.079Z,1.45
2022-10-16T14:48:55.327Z,1.45
2022-10-16T14:51:21.671Z,1.20
2022-10-16T14:53:48.096Z,1.35
2022-10-16T14:56:19.285Z,1.73
2022-10-16T14:58:45.632Z,1.42
2022-10-16T15:01:12.625Z,1.60
2022-10-16T15:03:39.209Z,1.40
2022-10-16T15:06:10.535Z,1.50
2022-10-16T15:08:36.839Z,1.77
2022-10-16T15:11:03.359Z,1.58
2022-10-16T15:13:29.669Z,1.70
2022-10-16T15:15:55.994Z,1.63
2022-10-16T15:18:23.153Z,1.20
2022-10-16T15:20:50.468Z,1.52
2022-10-16T15:23:18.331Z,1.65
2022-10-16T15:25:44.712Z,1.45
2022-10-16T15:28:11.815Z,1.60
2022-10-16T15:30:38.279Z,1.98
2022-10-16T15:33:05.217Z,2.80
2022-10-16T15:35:32.010Z,1.23
2022-10-16T15:37:58.348Z,1.95
2022-10-16T15:40:24.824Z,1.45
2022-10-16T15:42:51.178Z,1.70
2022-10-16T15:45:18.410Z,1.60
2022-10-16T15:47:45.892Z,1.10
2022-10-16T15:50:13.660Z,1.55
2022-10-16T15:52:40.405Z,1.95
2022-10-16T15:55:10.965Z,1.60
2022-10-16T15:57:39.240Z,1.50
2022-10-16T16:00:10.618Z,1.65
2022-10-16T16:02:37.678Z,0.93
2022-10-16T16:05:04.832Z,1.20
2022-10-16T16:07:33.682Z,1.27
2022-10-16T16:10:00.046Z,2.25
2022-10-16T16:12:26.611Z,1.20
2022-10-16T16:14:53.049Z,1.75
2022-10-16T16:17:19.412Z,1.95
2022-10-16T16:19:46.484Z,1.52
2022-10-16T16:22:13.381Z,1.38
2022-10-16T16:24:39.834Z,1.40
2022-10-16T16:27:06.147Z,1.73
2022-10-16T16:29:32.724Z,2.67
2022-10-16T16:32:00.296Z,1.48
2022-10-16T16:34:28.434Z,1.80
2022-10-16T16:36:56.003Z,1.80
2022-10-16T16:39:22.420Z,0.88
2022-10-16T16:41:49.037Z,2.10
2022-10-16T16:44:16.206Z,2.10
2022-10-16T16:46:43.841Z,1.58
2022-10-16T16:49:11.831Z,1.80
2022-10-16T16:51:40.530Z,1.90
2022-10-16T16:54:08.492Z,1.63
2022-10-16T16:56:35.146Z,1.80
2022-10-16T16:59:01.752Z,1.55
2022-10-16T17:01:28.526Z,1.20
2022-10-16T17:03:56.119Z,1.45
2022-10-16T17:06:23.893Z,1.65
2022-10-16T17:08:50.809Z,2.00
2022-10-16T17:11:19.018Z,1.88
2022-10-16T17:13:45.528Z,1.90
2022-10-16T17:16:11.974Z,2.20
2022-10-16T17:18:38.337Z,1.17
2022-10-16T17:21:06.808Z,1.60
2022-10-16T17:23:33.998Z,1.85
2022-10-16T17:26:07.916Z,1.33
2022-10-16T17:28:34.666Z,1.95
2022-10-16T17:33:43.692Z,1.35
2022-10-16T17:36:11.761Z,1.60
2022-10-16T17:38:38.080Z,1.60
2022-10-16T17:41:11.224Z,2.10
2022-10-16T17:43:37.945Z,2.00
2022-10-16T17:46:04.489Z,1.75
2022-10-16T17:48:30.801Z,1.55
2022-10-16T17:50:57.082Z,2.40
2022-10-16T17:53:23.455Z,2.40
2022-10-16T17:55:49.897Z,2.55
2022-10-16T17:58:16.354Z,2.60
2022-10-16T18:00:42.814Z,3.20
2022-10-16T18:03:09.131Z,2.10
2022-10-16T18:05:37.756Z,2.58
2022-10-16T18:08:04.196Z,2.55
2022-10-16T18:10:30.949Z,2.20
2022-10-16T18:12:57.271Z,2.55
2022-10-16T18:15:23.609Z,2.78
2022-10-16T18:17:49.949Z,3.30
2022-10-16T18:20:16.263Z,3.00
2022-10-16T18:22:42.560Z,3.05
2022-10-16T18:25:08.997Z,3.08
2022-10-16T18:27:35.306Z,3.67
2022-10-16T18:30:01.690Z,2.40
2022-10-16T18:32:28.156Z,2.35
2022-10-16T18:34:55.098Z,2.65
2022-10-16T18:37:21.550Z,2.67
2022-10-16T18:39:50.837Z,3.00
2022-10-16T18:42:17.617Z,2.38
2022-10-16T18:44:45.143Z,2.25
2022-10-16T18:47:12.265Z,2.10
2022-10-16T18:49:38.568Z,3.40
2022-10-16T18:52:05.190Z,2.60
2022-10-16T18:54:31.620Z,2.58
2022-10-16T18:56:57.974Z,2.25
2022-10-16T18:59:26.241Z,2.60
2022-10-16T19:01:52.723Z,2.17
2022-10-16T19:04:19.306Z,2.70
2022-10-16T19:06:46.618Z,2.35
2022-10-16T19:09:13.850Z,2.30
2022-10-16T19:11:41.911Z,2.10
2022-10-16T19:14:08.782Z,2.45
2022-10-16T19:16:35.674Z,2.72
2022-10-16T19:19:04.642Z,2.58
2022-10-16T19:21:31.534Z,2.92
2022-10-16T19:23:58.870Z,3.38
2022-10-16T19:26:25.707Z,2.60
2022-10-16T19:28:53.686Z,2.50
2022-10-16T19:31:20.918Z,2.95
2022-10-16T19:33:47.274Z,3.38
2022-10-16T19:36:15.521Z,2.63
2022-10-16T19:38:42.148Z,3.00
2022-10-16T19:41:09.687Z,3.10
2022-10-16T19:43:37.312Z,2.70
2022-10-16T19:46:04.547Z,3.00
2022-10-16T19:48:30.843Z,2.35
2022-10-16T19:50:57.947Z,2.05
2022-10-16T19:53:24.339Z,3.35
2022-10-16T19:55:50.652Z,3.33
2022-10-16T19:58:16.947Z,2.33
2022-10-16T20:00:43.324Z,2.85
2022-10-16T20:03:09.608Z,1.98
2022-10-16T20:05:35.922Z,2.05
2022-10-16T20:08:02.222Z,2.03
2022-10-16T20:10:28.689Z,1.95
2022-10-16T20:12:54.993Z,2.58
2022-10-16T20:15:21.282Z,2.30
2022-10-16T20:17:47.580Z,2.30
2022-10-16T20:20:14.274Z,2.03
2022-10-16T20:22:40.970Z,2.00
2022-10-16T20:25:10.062Z,1.92
2022-10-16T20:27:36.647Z,2.20
2022-10-16T20:30:03.707Z,2.00
2022-10-16T20:32:30.069Z,2.08
2022-10-16T20:34:56.345Z,2.75
2022-10-16T20:37:22.655Z,2.00
2022-10-16T20:39:49.009Z,2.00
2022-10-16T20:42:15.326Z,2.22
2022-10-16T20:44:41.796Z,2.17
2022-10-16T20:47:08.158Z,2.13
2022-10-16T20:49:40.714Z,1.23
2022-10-16T20:52:07.392Z,2.60
2022-10-16T20:54:33.798Z,2.70
2022-10-16T20:57:00.083Z,2.35
2022-10-16T20:59:26.402Z,1.75
2022-10-16T21:01:52.774Z,2.55
2022-10-16T21:04:19.243Z,2.30
2022-10-16T21:06:45.547Z,2.75
2022-10-16T21:09:11.847Z,2.40
2022-10-16T21:11:38.241Z,2.05
2022-10-16T21:14:05.867Z,2.63
2022-10-16T21:16:32.580Z,1.63
2022-10-16T21:18:58.872Z,1.30
2022-10-16T21:21:25.156Z,2.55
2022-10-16T21:23:51.844Z,1.85
2022-10-16T21:26:20.941Z,2.13
2022-10-16T21:28:47.358Z,3.35
2022-10-16T21:31:14.832Z,2.65
2022-10-16T21:33:41.656Z,1.77
2022-10-16T21:36:23.014Z,2.58
2022-10-16T21:38:49.496Z,1.73
2022-10-16T21:41:17.595Z,2.55
2022-10-16T21:43:44.037Z,2.40
2022-10-16T21:46:10.344Z,1.30
2022-10-16T21:48:36.887Z,2.00
2022-10-16T21:51:03.291Z,1.80
2022-10-16T21:53:29.611Z,2.03
2022-10-16T21:55:56.178Z,2.63
2022-10-16T21:58:22.688Z,2.30
2022-10-16T22:00:55.199Z,1.67
2022-10-16T22:03:21.505Z,1.45
2022-10-16T22:05:47.789Z,2.00
2022-10-16T22:08:15.814Z,2.00
2022-10-16T22:10:42.959Z,2.25
2022-10-16T22:13:09.416Z,1.83
2022-10-16T22:15:35.717Z,2.10
2022-10-16T22:18:02.070Z,1.70
2022-10-16T22:20:28.371Z,1.98
2022-10-16T22:22:54.859Z,1.50
2022-10-16T22:25:21.149Z,1.45
2022-10-16T22:27:47.439Z,2.10
2022-10-16T22:30:13.747Z,1.40
2022-10-16T22:32:40.373Z,1.27
2022-10-16T22:35:07.017Z,1.80
2022-10-16T22:37:33.300Z,1.60
2022-10-16T22:40:01.014Z,1.75
2022-10-16T22:42:27.617Z,1.40
2022-10-16T22:44:54.031Z,1.60
2022-10-16T22:47:20.317Z,1.77
2022-10-16T22:49:46.603Z,0.93
2022-10-16T22:52:13.511Z,1.10
2022-10-16T22:54:39.992Z,1.30
2022-10-16T22:57:06.284Z,1.00
2022-10-16T22:59:32.687Z,1.13
2022-10-16T23:01:59.062Z,1.48
2022-10-16T23:04:25.363Z,1.08
2022-10-16T23:06:51.643Z,0.90
2022-10-16T23:09:18.016Z,1.20
2022-10-16T23:11:44.344Z,1.02
2022-10-16T23:14:10.617Z,1.67
2022-10-16T23:16:36.915Z,0.93
2022-10-16T23:19:03.238Z,1.38
2022-10-16T23:21:29.591Z,1.40
2022-10-16T23:23:55.895Z,1.10
2022-10-16T23:26:23.796Z,1.10
2022-10-16T23:28:50.324Z,1.50
2022-10-16T23:31:16.905Z,1.33
2022-10-16T23:33:43.492Z,1.48
2022-10-16T23:36:10.964Z,1.05
2022-10-16T23:38:37.700Z,1.75
2022-10-16T23:41:04.390Z,1.42
2022-10-16T23:43:30.781Z,1.60
2022-10-16T23:45:57.089Z,1.40
2022-10-16T23:48:23.380Z,1.60
2022-10-16T23:50:49.763Z,1.05
2022-10-16T23:53:16.458Z,1.42
2022-10-16T23:55:42.974Z,1.50
2022-10-16T23:58:09.297Z,1.40
